Time;durP1;ratioP1;P1;durP2;ratioP2;P2;SDS_P1;SDS_P2;PMS_P1;PMS_P2;Temp;Humidity;BMP_temperature;BMP_pressure;BME280_temperature;BME280_humidity;BME280_pressure;Samples;Min_cycle;Max_cycle;Signal;HPM_P1;HPM_P2
2022/04/07 00:01:25;;;;;;;5.68;2.00;;;;;;;-145.45;100.00;62759.84;5306128;28;20063;-76
2022/04/07 00:03:56;;;;;;;5.38;2.25;;;;;;;-145.45;100.00;62759.84;5284788;28;20098;-76
2022/04/07 00:06:27;;;;;;;7.43;1.80;;;;;;;-145.45;100.00;62759.84;5314074;28;20025;-76
2022/04/07 00:09:02;;;;;;;7.13;2.42;;;;;;;-145.45;100.00;62759.84;5309318;28;20048;-76
2022/04/07 00:11:34;;;;;;;6.68;1.70;;;;;;;-145.45;100.00;62759.84;5311649;28;20325;-75
2022/04/07 00:14:05;;;;;;;5.65;1.98;;;;;;;-145.45;100.00;62759.84;5305832;28;20047;-76
2022/04/07 00:16:36;;;;;;;5.75;2.10;;;;;;;-145.45;100.00;62759.84;5305731;28;20103;-75
2022/04/07 00:19:09;;;;;;;7.93;1.88;;;;;;;-145.45;100.00;62759.84;5288424;28;20115;-75
2022/04/07 00:21:46;;;;;;;5.97;1.58;;;;;;;-145.45;100.00;62759.84;5305191;28;20060;-75
2022/04/07 00:24:18;;;;;;;7.43;2.42;;;;;;;-145.45;100.00;62759.84;5307653;28;20107;-75
2022/04/07 00:26:49;;;;;;;6.75;1.75;;;;;;;-145.45;100.00;62759.84;5287024;28;20549;-75
2022/04/07 00:29:20;;;;;;;9.00;1.80;;;;;;;-145.45;100.00;62759.84;5306041;28;20159;-75
2022/04/07 00:31:56;;;;;;;9.43;2.33;;;;;;;-145.45;100.00;62759.84;5300569;28;20039;-76
2022/04/07 00:34:27;;;;;;;4.93;2.30;;;;;;;-145.45;100.00;62759.84;5300395;28;20461;-76
2022/04/07 00:36:59;;;;;;;5.18;2.20;;;;;;;-145.45;100.00;62759.84;5298454;28;20290;-75
2022/04/07 00:39:31;;;;;;;8.45;2.08;;;;;;;-145.45;100.00;62759.84;5285617;28;20025;-76
2022/04/07 00:42:02;;;;;;;7.22;1.67;;;;;;;-145.45;100.00;62759.84;5288566;28;20016;-76
2022/04/07 00:44:33;;;;;;;6.47;2.20;;;;;;;-145.45;100.00;62759.84;5289556;28;20102;-76
2022/04/07 00:47:05;;;;;;;8.43;2.55;;;;;;;-145.45;100.00;62759.84;5310543;28;20472;-76
2022/04/07 00:49:37;;;;;;;5.85;2.20;;;;;;;-145.45;100.00;62759.84;5315036;28;20076;-76
2022/04/07 00:52:09;;;;;;;6.88;1.95;;;;;;;-145.45;100.00;62759.84;5309162;28;20033;-75
2022/04/07 00:54:42;;;;;;;4.90;1.92;;;;;;;-145.45;100.00;62759.84;5312004;28;20033;-75
2022/04/07 00:57:13;;;;;;;9.45;2.97;;;;;;;-145.45;100.00;62759.84;5311205;28;20032;-75
2022/04/07 00:59:47;;;;;;;8.65;3.13;;;;;;;-145.45;100.00;62759.84;5304515;28;20174;-76
2022/04/07 01:02:19;;;;;;;7.63;3.00;;;;;;;-145.45;100.00;62759.84;5304699;28;20116;-76
2022/04/07 01:04:51;;;;;;;9.13;2.70;;;;;;;-145.45;100.00;62759.84;5307160;28;20039;-75
2022/04/07 01:07:24;;;;;;;11.25;3.33;;;;;;;-145.45;100.00;62759.84;5310329;28;20040;-76
2022/04/07 01:09:55;;;;;;;9.15;3.42;;;;;;;-145.45;100.00;62759.84;5305640;28;20060;-76
2022/04/07 01:12:27;;;;;;;10.80;3.20;;;;;;;-145.45;100.00;62759.84;5309615;28;20520;-76
2022/04/07 01:15:04;;;;;;;11.55;3.22;;;;;;;-145.45;100.00;62759.84;5310188;28;20032;-76
2022/04/07 01:17:37;;;;;;;6.72;2.70;;;;;;;-145.45;100.00;62759.84;5292813;28;20127;-76
2022/04/07 01:20:08;;;;;;;6.95;2.58;;;;;;;-145.45;100.00;62759.84;5306250;28;20021;-76
2022/04/07 01:22:41;;;;;;;7.57;2.92;;;;;;;-145.45;100.00;62759.84;5311520;28;20523;-76
2022/04/07 01:25:13;;;;;;;7.00;2.95;;;;;;;-145.45;100.00;62759.84;5289648;28;20431;-76
2022/04/07 01:27:48;;;;;;;8.02;2.63;;;;;;;-145.45;100.00;62759.84;5309525;28;20036;-76
2022/04/07 01:30:20;;;;;;;8.65;3.20;;;;;;;-145.45;100.00;62759.84;5304114;28;20075;-76
2022/04/07 01:32:57;;;;;;;5.90;2.38;;;;;;;-145.45;100.00;62759.84;5290173;28;20464;-76
2022/04/07 01:35:29;;;;;;;7.00;2.53;;;;;;;-145.45;100.00;62759.84;5310563;28;20025;-77
2022/04/07 01:38:01;;;;;;;8.20;3.58;;;;;;;-145.45;100.00;62759.84;5306970;28;20496;-76
2022/04/07 01:40:35;;;;;;;11.90;2.80;;;;;;;-145.45;100.00;62759.84;5307786;28;20032;-77
2022/04/07 01:43:08;;;;;;;7.68;3.00;;;;;;;-145.45;100.00;62759.84;5309927;28;20456;-77
2022/04/07 01:45:40;;;;;;;8.98;3.22;;;;;;;-145.45;100.00;62759.84;5307916;28;20507;-77
2022/04/07 01:48:12;;;;;;;12.10;2.90;;;;;;;-145.45;100.00;62759.84;5305330;28;20123;-76
2022/04/07 01:50:44;;;;;;;8.00;2.50;;;;;;;-145.45;100.00;62759.84;5306996;28;20103;-76
2022/04/07 01:53:16;;;;;;;7.35;2.55;;;;;;;-145.45;100.00;62759.84;5314760;28;20028;-76
2022/04/07 01:55:48;;;;;;;14.63;3.05;;;;;;;-145.45;100.00;62759.84;5288493;28;20020;-77
2022/04/07 01:58:20;;;;;;;8.50;2.60;;;;;;;-145.45;100.00;62759.84;5285760;28;20060;-76
2022/04/07 02:00:51;;;;;;;7.82;3.00;;;;;;;-145.45;100.00;62759.84;5307725;28;20059;-76
2022/04/07 02:03:23;;;;;;;9.32;2.40;;;;;;;-145.45;100.00;62759.84;5307931;28;20461;-77
2022/04/07 02:05:54;;;;;;;7.43;2.67;;;;;;;-145.45;100.00;62759.84;5307388;28;20075;-76
2022/04/07 02:08:25;;;;;;;6.90;2.60;;;;;;;-145.45;100.00;62759.84;5316375;28;20442;-76
2022/04/07 02:10:56;;;;;;;12.05;3.22;;;;;;;-145.45;100.00;62759.84;5313102;28;20036;-76
2022/04/07 02:13:28;;;;;;;11.60;2.72;;;;;;;-145.45;100.00;62759.84;5304203;28;20133;-76
2022/04/07 02:16:01;;;;;;;13.65;2.65;;;;;;;-145.45;100.00;62759.84;5286592;28;20024;-76
2022/04/07 02:18:32;;;;;;;6.88;2.75;;;;;;;-145.45;100.00;62759.84;5305344;28;20071;-76
2022/04/07 02:21:04;;;;;;;7.47;2.45;;;;;;;-145.45;100.00;62759.84;5310080;28;20031;-76
2022/04/07 02:23:42;;;;;;;9.75;2.85;;;;;;;-145.45;100.00;62759.84;5311228;28;20396;-75
2022/04/07 02:26:18;;;;;;;9.93;2.78;;;;;;;-145.45;100.00;62759.84;5305322;28;20385;-76
2022/04/07 02:28:49;;;;;;;10.10;2.78;;;;;;;-145.45;100.00;62759.84;5312444;28;20122;-76
2022/04/07 02:31:20;;;;;;;8.68;2.40;;;;;;;-145.45;100.00;62759.84;5308385;28;20170;-76
2022/04/07 02:33:52;;;;;;;16.50;2.60;;;;;;;-145.45;100.00;62759.84;5313162;28;20028;-76
2022/04/07 02:36:23;;;;;;;12.55;2.85;;;;;;;-145.45;100.00;62759.84;5308034;28;20028;-76
2022/04/07 02:38:54;;;;;;;8.60;2.50;;;;;;;-145.45;100.00;62759.84;5306790;28;20401;-76
2022/04/07 02:41:26;;;;;;;12.07;3.03;;;;;;;-145.45;100.00;62759.84;5302380;28;20032;-75
2022/04/07 02:43:57;;;;;;;11.93;2.65;;;;;;;-145.45;100.00;62759.84;5300761;28;20045;-75
2022/04/07 02:46:29;;;;;;;11.60;3.20;;;;;;;-145.45;100.00;62759.84;5301296;28;20029;-76
2022/04/07 02:49:00;;;;;;;11.65;2.58;;;;;;;-145.45;100.00;62759.84;5284777;28;20127;-75
2022/04/07 02:51:32;;;;;;;7.15;2.60;;;;;;;-145.45;100.00;62759.84;5312064;28;20051;-75
2022/04/07 02:54:03;;;;;;;9.70;2.55;;;;;;;-145.45;100.00;62759.84;5309659;28;20419;-75
2022/04/07 02:56:35;;;;;;;8.77;3.03;;;;;;;-145.45;100.00;62759.84;5311612;28;20036;-75
2022/04/07 02:59:06;;;;;;;7.10;2.58;;;;;;;-145.45;100.00;62759.84;5302382;28;20035;-75
2022/04/07 03:01:37;;;;;;;9.02;2.53;;;;;;;-145.45;100.00;62759.84;5289160;28;20465;-75
2022/04/07 03:04:08;;;;;;;11.05;2.83;;;;;;;-145.45;100.00;62759.84;5303861;28;20110;-75
2022/04/07 03:06:40;;;;;;;9.32;2.53;;;;;;;-145.45;100.00;62759.84;5305515;28;20449;-75
2022/04/07 03:09:11;;;;;;;9.50;2.72;;;;;;;-145.45;100.00;62759.84;5304273;28;20028;-76
2022/04/07 03:11:42;;;;;;;10.65;3.00;;;;;;;-145.45;100.00;62759.84;5304083;28;20025;-75
2022/04/07 03:14:15;;;;;;;9.13;2.53;;;;;;;-145.45;100.00;62759.84;5302083;28;20036;-75
2022/04/07 03:16:48;;;;;;;8.07;2.55;;;;;;;-145.45;100.00;62759.84;5287961;28;20044;-76
2022/04/07 03:19:19;;;;;;;9.40;2.78;;;;;;;-145.45;100.00;62759.84;5304488;28;20028;-75
2022/04/07 03:21:51;;;;;;;9.02;2.50;;;;;;;-145.45;100.00;62759.84;5302773;28;20392;-75
2022/04/07 03:24:24;;;;;;;8.65;3.25;;;;;;;-145.45;100.00;62759.84;5308578;28;20474;-75
2022/04/07 03:26:55;;;;;;;8.35;2.60;;;;;;;-145.45;100.00;62759.84;5305383;28;20107;-75
2022/04/07 03:29:29;;;;;;;8.82;2.53;;;;;;;-145.45;100.00;62759.84;5296327;28;20128;-75
2022/04/07 03:32:00;;;;;;;10.48;2.20;;;;;;;-145.45;100.00;62759.84;5300854;28;20060;-76
2022/04/07 03:34:36;;;;;;;10.73;2.47;;;;;;;-145.45;100.00;62759.84;5300981;28;20118;-75
2022/04/07 03:37:08;;;;;;;17.20;2.97;;;;;;;-145.45;100.00;62759.84;5300000;28;20020;-75
2022/04/07 03:39:39;;;;;;;9.27;2.20;;;;;;;-145.45;100.00;62759.84;5301300;28;20473;-75
2022/04/07 03:42:10;;;;;;;7.28;1.88;;;;;;;-145.45;100.00;62759.84;5297517;28;20070;-75
2022/04/07 03:44:42;;;;;;;11.48;2.20;;;;;;;-145.45;100.00;62759.84;5299785;28;20033;-75
2022/04/07 03:47:13;;;;;;;9.85;2.05;;;;;;;-145.45;100.00;62759.84;5298995;28;20069;-75
2022/04/07 03:49:44;;;;;;;11.15;2.63;;;;;;;-145.45;100.00;62759.84;5300170;28;20036;-76
2022/04/07 03:52:16;;;;;;;8.27;2.75;;;;;;;-145.45;100.00;62759.84;5300219;28;20051;-76
2022/04/07 03:54:47;;;;;;;8.13;2.65;;;;;;;-145.45;100.00;62759.84;5301846;28;20115;-75
2022/04/07 03:57:19;;;;;;;10.75;2.58;;;;;;;-145.45;100.00;62759.84;5302260;28;20496;-75
2022/04/07 03:59:50;;;;;;;11.20;2.58;;;;;;;-145.45;100.00;62759.84;5283528;28;20021;-75
2022/04/07 04:02:21;;;;;;;8.95;2.22;;;;;;;-145.45;100.00;62759.84;5299079;28;20441;-75
2022/04/07 04:04:53;;;;;;;9.98;2.28;;;;;;;-145.45;100.00;62759.84;5302990;28;20021;-76
2022/04/07 04:07:24;;;;;;;6.82;1.92;;;;;;;-145.45;100.00;62759.84;5312976;28;20378;-76
2022/04/07 04:09:56;;;;;;;8.63;2.10;;;;;;;-145.45;100.00;62759.84;5303852;28;20024;-75
2022/04/07 04:12:27;;;;;;;6.28;2.10;;;;;;;-145.45;100.00;62759.84;5303457;28;20068;-76
2022/04/07 04:14:58;;;;;;;8.80;2.78;;;;;;;-145.45;100.00;62759.84;5287910;28;20029;-75
2022/04/07 04:17:31;;;;;;;5.78;1.95;;;;;;;-145.45;100.00;62759.84;5288181;28;20107;-76
2022/04/07 04:20:02;;;;;;;7.00;2.20;;;;;;;-145.45;100.00;62759.84;5304251;28;20032;-75
2022/04/07 04:22:34;;;;;;;5.53;1.95;;;;;;;-145.45;100.00;62759.84;5301813;28;20032;-75
2022/04/07 04:25:08;;;;;;;6.47;2.08;;;;;;;-145.45;100.00;62759.84;5303601;28;20071;-75
2022/04/07 04:27:40;;;;;;;4.68;1.70;;;;;;;-145.45;100.00;62759.84;5302247;28;20611;-75
2022/04/07 04:30:13;;;;;;;8.25;2.05;;;;;;;-145.45;100.00;62759.84;5305259;28;20021;-76
2022/04/07 04:32:44;;;;;;;5.80;1.42;;;;;;;-145.45;100.00;62759.84;5305518;28;20377;-75
2022/04/07 04:35:16;;;;;;;7.25;1.83;;;;;;;-145.45;100.00;62759.84;5305114;28;20029;-76
2022/04/07 04:37:47;;;;;;;8.52;2.80;;;;;;;-145.45;100.00;62759.84;5306147;28;20021;-77
2022/04/07 04:40:18;;;;;;;4.78;1.27;;;;;;;-145.45;100.00;62759.84;5303603;28;20059;-77
2022/04/07 04:42:50;;;;;;;5.95;1.65;;;;;;;-145.45;100.00;62759.84;5304750;28;20051;-77
2022/04/07 04:45:21;;;;;;;7.32;1.70;;;;;;;-145.45;100.00;62759.84;5309509;28;20101;-77
2022/04/07 04:47:52;;;;;;;5.18;1.90;;;;;;;-145.45;100.00;62759.84;5316656;28;20097;-77
2022/04/07 04:50:25;;;;;;;4.18;1.80;;;;;;;-145.45;100.00;62759.84;5312850;28;20067;-76
2022/04/07 04:52:56;;;;;;;4.93;1.60;;;;;;;-145.45;100.00;62759.84;5314961;28;20103;-76
2022/04/07 04:55:27;;;;;;;3.38;1.40;;;;;;;-145.45;100.00;62759.84;5314707;28;20115;-76
2022/04/07 04:57:59;;;;;;;5.53;1.70;;;;;;;-145.45;100.00;62759.84;5308804;28;20366;-76
2022/04/07 05:00:30;;;;;;;5.03;1.40;;;;;;;-145.45;100.00;62759.84;5304512;28;20473;-76
2022/04/07 05:03:01;;;;;;;3.20;1.35;;;;;;;-145.45;100.00;62759.84;5303336;28;20029;-76
2022/04/07 05:05:33;;;;;;;4.57;1.50;;;;;;;-145.45;100.00;62759.84;5304784;28;20127;-76
2022/04/07 05:08:04;;;;;;;2.67;1.15;;;;;;;-145.45;100.00;62759.84;5311610;28;20123;-75
2022/04/07 05:10:37;;;;;;;5.95;1.67;;;;;;;-145.45;100.00;62759.84;5289851;28;20190;-76
2022/04/07 05:13:08;;;;;;;2.92;1.10;;;;;;;-145.45;100.00;62759.84;5302182;28;20197;-76
2022/04/07 05:15:39;;;;;;;3.17;1.10;;;;;;;-145.45;100.00;62759.84;5282170;28;20081;-75
2022/04/07 05:18:11;;;;;;;5.32;1.70;;;;;;;-145.45;100.00;62759.84;5304803;28;20108;-76
2022/04/07 05:20:42;;;;;;;1.70;1.02;;;;;;;-145.45;100.00;62759.84;5285222;28;20051;-76
2022/04/07 05:23:14;;;;;;;3.25;1.30;;;;;;;-145.45;100.00;62759.84;5304520;28;20127;-76
2022/04/07 05:25:45;;;;;;;3.65;1.50;;;;;;;-145.45;100.00;62759.84;5299171;28;20040;-76
2022/04/07 05:28:16;;;;;;;4.78;1.38;;;;;;;-145.45;100.00;62759.84;5316719;28;20036;-76
2022/04/07 05:30:48;;;;;;;4.32;1.70;;;;;;;-145.45;100.00;62759.84;5314147;28;20412;-76
2022/04/07 05:33:19;;;;;;;4.72;2.20;;;;;;;-145.45;100.00;62759.84;5312563;28;20074;-76
2022/04/07 05:35:51;;;;;;;5.35;2.30;;;;;;;-145.45;100.00;62759.84;5295003;28;20060;-76
2022/04/07 05:38:22;;;;;;;4.20;2.03;;;;;;;-145.45;100.00;62759.84;5296878;28;20083;-76
2022/04/07 05:40:54;;;;;;;5.88;2.50;;;;;;;-145.45;100.00;62759.84;5289396;28;20036;-76
2022/04/07 05:43:25;;;;;;;5.10;2.63;;;;;;;-145.45;100.00;62759.84;5302781;28;20040;-76
2022/04/07 05:45:56;;;;;;;9.02;3.08;;;;;;;-145.45;100.00;62759.84;5282328;28;20427;-76
2022/04/07 05:48:28;;;;;;;6.20;3.55;;;;;;;-145.45;100.00;62759.84;5304481;28;20147;-76
2022/04/07 05:50:59;;;;;;;9.27;3.78;;;;;;;-145.45;100.00;62759.84;5313518;28;20522;-75
2022/04/07 05:53:31;;;;;;;7.15;3.60;;;;;;;-145.45;100.00;62759.84;5288264;28;20472;-77
2022/04/07 05:56:02;;;;;;;9.32;4.10;;;;;;;-145.45;100.00;62759.84;5308784;28;20020;-76
2022/04/07 05:58:34;;;;;;;6.88;3.33;;;;;;;-145.45;100.00;62759.84;5292835;28;20386;-75
2022/04/07 06:01:05;;;;;;;7.55;3.78;;;;;;;-145.45;100.00;62759.84;5300823;28;20170;-75
2022/04/07 06:03:36;;;;;;;7.55;3.90;;;;;;;-145.45;100.00;62759.84;5310777;28;20121;-76
2022/04/07 06:06:07;;;;;;;11.48;4.25;;;;;;;-145.45;100.00;62759.84;5304871;28;20046;-75
2022/04/07 06:08:39;;;;;;;10.55;4.93;;;;;;;-145.45;100.00;62759.84;5306065;28;20029;-75
2022/04/07 06:11:11;;;;;;;11.38;4.28;;;;;;;-145.45;100.00;62759.84;5304979;28;20036;-76
2022/04/07 06:13:43;;;;;;;6.20;4.07;;;;;;;-145.45;100.00;62759.84;5304115;28;20468;-76
2022/04/07 06:16:15;;;;;;;10.45;4.32;;;;;;;-145.45;100.00;62759.84;5286798;28;20027;-75
2022/04/07 06:18:46;;;;;;;7.55;4.03;;;;;;;-145.45;100.00;62759.84;5315701;28;20075;-76
2022/04/07 06:21:18;;;;;;;8.45;4.18;;;;;;;-145.45;100.00;62759.84;5308954;28;20071;-76
2022/04/07 06:23:51;;;;;;;7.95;4.03;;;;;;;-145.45;100.00;62759.84;5307286;28;20126;-76
2022/04/07 06:26:22;;;;;;;8.10;3.60;;;;;;;-145.45;100.00;62759.84;5307336;28;20031;-76
2022/04/07 06:28:54;;;;;;;7.38;3.45;;;;;;;-145.45;100.00;62759.84;5324486;28;20024;-76
2022/04/07 06:31:26;;;;;;;6.38;3.08;;;;;;;-145.45;100.00;62759.84;5307360;28;20036;-76
2022/04/07 06:33:58;;;;;;;9.60;3.28;;;;;;;-145.45;100.00;62759.84;5324459;27;20051;-76
2022/04/07 06:36:29;;;;;;;11.38;3.50;;;;;;;-145.45;100.00;62759.84;5287480;28;20458;-77
2022/04/07 06:39:00;;;;;;;9.63;3.13;;;;;;;-145.45;100.00;62759.84;5325857;28;20058;-76
2022/04/07 06:41:33;;;;;;;6.90;2.95;;;;;;;-145.45;100.00;62759.84;5325965;28;20630;-77
2022/04/07 06:44:05;;;;;;;8.50;2.53;;;;;;;-145.45;100.00;62759.84;5324534;28;20028;-77
2022/04/07 06:46:36;;;;;;;8.90;3.17;;;;;;;-145.45;100.00;62759.84;5328116;28;20020;-76
2022/04/07 06:49:08;;;;;;;11.75;3.22;;;;;;;-145.45;100.00;62759.84;5303504;28;20487;-77
2022/04/07 06:51:39;;;;;;;7.05;2.50;;;;;;;-145.45;100.00;62759.84;5305862;28;20048;-79
2022/04/07 06:54:10;;;;;;;13.40;3.90;;;;;;;-145.45;100.00;62759.84;5304134;28;20447;-78
2022/04/07 06:56:41;;;;;;;7.10;2.42;;;;;;;-145.45;100.00;62759.84;5304298;28;20055;-78
2022/04/07 06:59:13;;;;;;;6.18;2.53;;;;;;;-145.45;100.00;62759.84;5303278;28;20028;-79
2022/04/07 07:01:44;;;;;;;8.02;2.50;;;;;;;-145.45;100.00;62759.84;5304241;28;20082;-78
2022/04/07 07:04:15;;;;;;;7.75;2.42;;;;;;;-145.45;100.00;62759.84;5302848;28;41154;-79
2022/04/07 07:06:46;;;;;;;8.48;2.72;;;;;;;-145.45;100.00;62759.84;5301011;28;20086;-78
2022/04/07 07:09:18;;;;;;;6.80;2.40;;;;;;;-145.45;100.00;62759.84;5289189;28;20033;-79
2022/04/07 07:11:49;;;;;;;8.65;2.58;;;;;;;-145.45;100.00;62759.84;5282810;28;20040;-79
2022/04/07 07:14:20;;;;;;;10.32;3.08;;;;;;;-145.45;100.00;62759.84;5281090;28;23705;-79
2022/04/07 07:16:51;;;;;;;13.40;3.30;;;;;;;-145.45;100.00;62759.84;5264592;28;20029;-78
2022/04/07 07:19:26;;;;;;;7.32;2.63;;;;;;;-145.45;100.00;62759.84;5306891;28;20059;-78
2022/04/07 07:21:57;;;;;;;6.60;3.35;;;;;;;-145.45;100.00;62759.84;5306441;28;20024;-78
2022/04/07 07:24:29;;;;;;;7.13;2.60;;;;;;;-145.45;100.00;62759.84;5306445;28;20042;-78
2022/04/07 07:27:00;;;;;;;7.90;2.80;;;;;;;-145.45;100.00;62759.84;5325762;28;20028;-77
2022/04/07 07:29:31;;;;;;;6.93;2.30;;;;;;;-145.45;100.00;62759.84;5312195;28;20107;-78
2022/04/07 07:32:03;;;;;;;5.72;2.50;;;;;;;-145.45;100.00;62759.84;5303250;28;28020;-78
2022/04/07 07:34:34;;;;;;;6.95;2.90;;;;;;;-145.45;100.00;62759.84;5304056;28;20064;-78
2022/04/07 07:37:06;;;;;;;5.57;3.10;;;;;;;-145.45;100.00;62759.84;5303956;28;20048;-78
2022/04/07 07:39:37;;;;;;;6.00;2.58;;;;;;;-145.45;100.00;62759.84;5303676;28;20530;-78
2022/04/07 07:42:08;;;;;;;5.38;2.90;;;;;;;-145.45;100.00;62759.84;5285260;28;20025;-78
2022/04/07 07:44:39;;;;;;;5.90;3.05;;;;;;;-145.45;100.00;62759.84;5285444;28;20017;-78
2022/04/07 07:47:11;;;;;;;5.22;2.63;;;;;;;-145.45;100.00;62759.84;5307016;28;20028;-78
2022/04/07 07:49:42;;;;;;;8.18;2.00;;;;;;;-145.45;100.00;62759.84;5307355;28;20120;-77
2022/04/07 07:52:13;;;;;;;2.40;0.50;;;;;;;-145.45;100.00;62759.84;5307512;28;20029;-77
2022/04/07 07:54:45;;;;;;;1.38;0.50;;;;;;;-145.45;100.00;62759.84;5307377;28;20020;-77
2022/04/07 07:57:18;;;;;;;2.78;0.75;;;;;;;-145.45;100.00;62759.84;5318372;28;20868;-77
2022/04/07 07:59:51;;;;;;;2.22;0.70;;;;;;;-145.45;100.00;62759.84;5266911;28;20374;-77
2022/04/07 08:02:22;;;;;;;4.90;1.05;;;;;;;-145.45;100.00;62759.84;5299942;28;20457;-77
2022/04/07 08:04:53;;;;;;;4.10;0.90;;;;;;;-145.45;100.00;62759.84;5288906;28;20028;-77
2022/04/07 08:07:24;;;;;;;4.60;0.80;;;;;;;-145.45;100.00;62759.84;5306324;28;20380;-77
2022/04/07 08:09:56;;;;;;;4.32;1.00;;;;;;;-145.45;100.00;62759.84;5306954;28;20027;-77
2022/04/07 08:12:28;;;;;;;6.30;0.90;;;;;;;-145.45;100.00;62759.84;5306254;28;20322;-77
2022/04/07 08:14:59;;;;;;;4.63;0.60;;;;;;;-145.45;100.00;62759.84;5287881;28;20166;-77
2022/04/07 08:17:31;;;;;;;4.45;1.20;;;;;;;-145.45;100.00;62759.84;5319282;28;20484;-77
2022/04/07 08:20:07;;;;;;;2.65;1.08;;;;;;;-145.45;100.00;62759.84;5328151;28;20074;-77
2022/04/07 08:22:38;;;;;;;5.40;1.42;;;;;;;-145.45;100.00;62759.84;5328042;28;20318;-76
2022/04/07 08:25:10;;;;;;;4.05;1.20;;;;;;;-145.45;100.00;62759.84;5327946;28;20024;-77
2022/04/07 08:27:41;;;;;;;5.50;1.60;;;;;;;-145.45;100.00;62759.84;5309258;28;20523;-77
2022/04/07 08:30:12;;;;;;;9.98;1.67;;;;;;;-145.45;100.00;62759.84;5327609;28;20146;-77
2022/04/07 08:32:44;;;;;;;6.15;1.52;;;;;;;-145.45;100.00;62759.84;5310085;28;20048;-76
2022/04/07 08:35:15;;;;;;;4.13;1.38;;;;;;;-145.45;100.00;62759.84;5298004;28;20021;-77
2022/04/07 08:37:46;;;;;;;2.88;1.05;;;;;;;-145.45;100.00;62759.84;5285627;28;20029;-77
2022/04/07 08:40:21;;;;;;;2.35;1.20;;;;;;;-145.45;100.00;62759.84;5285548;28;20075;-77
2022/04/07 08:42:53;;;;;;;4.97;1.02;;;;;;;-145.45;100.00;62759.84;5302869;28;20031;-77
2022/04/07 08:45:25;;;;;;;4.95;1.38;;;;;;;-145.45;100.00;62759.84;5306108;28;20024;-77
2022/04/07 08:47:57;;;;;;;2.63;1.00;;;;;;;-145.45;100.00;62759.84;5303234;28;20068;-77
2022/04/07 08:50:33;;;;;;;4.07;1.17;;;;;;;-145.45;100.00;62759.84;5305893;28;20048;-79
2022/04/07 08:53:05;;;;;;;4.97;1.75;;;;;;;-145.45;100.00;62759.84;5305821;28;20070;-77
2022/04/07 08:55:37;;;;;;;4.78;1.55;;;;;;;-145.45;100.00;62759.84;5306500;28;20020;-78
2022/04/07 08:58:10;;;;;;;5.53;1.30;;;;;;;-145.45;100.00;62759.84;5325538;27;20036;-78
2022/04/07 09:00:41;;;;;;;5.53;2.10;;;;;;;-145.45;100.00;62759.84;5326990;28;20024;-78
2022/04/07 09:03:13;;;;;;;5.72;2.20;;;;;;;-145.45;100.00;62759.84;5314505;28;20028;-78
2022/04/07 09:05:52;;;;;;;4.53;1.80;;;;;;;-145.45;100.00;62759.84;5321708;28;20061;-78
2022/04/07 09:08:35;;;;;;;3.88;1.38;;;;;;;-145.45;100.00;62759.84;5320081;28;20029;-78
2022/04/07 09:11:09;;;;;;;4.43;1.50;;;;;;;-145.45;100.00;62759.84;5287494;28;20025;-78
2022/04/07 09:13:42;;;;;;;5.72;1.60;;;;;;;-145.45;100.00;62759.84;5305464;28;20048;-77
2022/04/07 09:16:15;;;;;;;4.30;1.30;;;;;;;-145.45;100.00;62759.84;5305236;28;20028;-77
2022/04/07 09:18:49;;;;;;;1.85;1.00;;;;;;;-145.45;100.00;62759.84;5288535;28;20031;-77
2022/04/07 09:21:27;;;;;;;3.70;1.40;;;;;;;-145.45;100.00;62759.84;5326485;28;20529;-78
2022/04/07 09:24:00;;;;;;;5.95;1.80;;;;;;;-145.45;100.00;62759.84;5326732;28;20016;-77
2022/04/07 09:26:35;;;;;;;5.82;1.60;;;;;;;-145.45;100.00;62759.84;5328021;28;20012;-77
2022/04/07 09:29:08;;;;;;;2.05;1.27;;;;;;;-145.45;100.00;62759.84;5322663;28;20056;-77
2022/04/07 09:31:51;;;;;;;3.25;1.33;;;;;;;-145.45;100.00;62759.84;5306346;28;20523;-77
2022/04/07 09:34:32;;;;;;;1.95;1.50;;;;;;;-145.45;100.00;62759.84;5305027;28;20043;-78
2022/04/07 09:37:07;;;;;;;2.20;1.10;;;;;;;-145.45;100.00;62759.84;5305796;28;20027;-77
2022/04/07 09:39:40;;;;;;;3.43;1.37;;;;;;;-145.45;100.00;62759.84;5286984;28;20038;-77
2022/04/07 09:42:19;;;;;;;3.83;1.77;;;;;;;-145.45;100.00;62759.84;5305303;28;20267;-78
2022/04/07 09:44:59;;;;;;;3.88;1.50;;;;;;;-145.45;100.00;62759.84;5305746;28;20077;-78
2022/04/07 09:47:34;;;;;;;3.55;1.20;;;;;;;-145.45;100.00;62759.84;5322557;28;20043;-78
2022/04/07 09:50:09;;;;;;;2.83;0.60;;;;;;;-145.45;100.00;62759.84;5305702;28;20029;-77
2022/04/07 09:52:54;;;;;;;6.00;1.70;;;;;;;-145.45;100.00;62759.84;5299166;28;20032;-78
2022/04/07 09:55:29;;;;;;;2.15;0.75;;;;;;;-145.45;100.00;62759.84;5311551;28;20424;-78
2022/04/07 09:58:03;;;;;;;2.90;1.10;;;;;;;-145.45;100.00;62759.84;5308097;28;20037;-78
2022/04/07 10:00:35;;;;;;;4.53;1.27;;;;;;;-145.45;100.00;62759.84;5283382;28;20025;-78
2022/04/07 10:03:08;;;;;;;6.53;1.33;;;;;;;-145.45;100.00;62759.84;5295490;28;20017;-78
2022/04/07 10:05:41;;;;;;;4.13;1.20;;;;;;;-145.45;100.00;62759.84;5305288;28;20016;-77
2022/04/07 10:08:15;;;;;;;4.90;1.38;;;;;;;-145.45;100.00;62759.84;5304461;28;20028;-77
2022/04/07 10:10:47;;;;;;;6.32;1.35;;;;;;;-145.45;100.00;62759.84;5325416;28;20447;-77
2022/04/07 10:13:18;;;;;;;5.50;1.23;;;;;;;-145.45;100.00;62759.84;5325265;28;20036;-77
2022/04/07 10:15:51;;;;;;;3.30;0.90;;;;;;;-145.45;100.00;62759.84;5325847;28;20050;-77
2022/04/07 10:18:33;;;;;;;3.08;1.48;;;;;;;-145.45;100.00;62759.84;5325972;28;20016;-77
2022/04/07 10:21:09;;;;;;;3.90;0.98;;;;;;;-145.45;100.00;62759.84;5325794;28;20031;-77
2022/04/07 10:24:03;;;;;;;8.10;1.10;;;;;;;-145.45;100.00;62759.84;5317328;28;20078;-76
2022/04/07 10:26:35;;;;;;;4.32;0.88;;;;;;;-145.45;100.00;62759.84;5304495;28;20086;-77
2022/04/07 10:29:06;;;;;;;4.97;1.00;;;;;;;-145.45;100.00;62759.84;5303548;28;20028;-77
2022/04/07 10:31:38;;;;;;;4.53;1.30;;;;;;;-145.45;100.00;62759.84;5305226;28;20026;-77
2022/04/07 10:34:10;;;;;;;4.15;1.38;;;;;;;-145.45;100.00;62759.84;5303956;28;20078;-77
2022/04/07 10:36:43;;;;;;;4.07;1.20;;;;;;;-145.45;100.00;62759.84;5265231;28;20041;-77
2022/04/07 10:39:14;;;;;;;4.80;1.25;;;;;;;-145.45;100.00;62759.84;5294617;28;20430;-77
2022/04/07 10:41:46;;;;;;;6.22;1.40;;;;;;;-145.45;100.00;62759.84;5307110;28;20031;-76
2022/04/07 10:44:20;;;;;;;7.38;1.60;;;;;;;-145.45;100.00;62759.84;5303147;28;20089;-77
2022/04/07 10:47:05;;;;;;;7.03;1.58;;;;;;;-145.45;100.00;62759.84;5325808;28;20074;-77
2022/04/07 10:49:45;;;;;;;5.22;1.38;;;;;;;-145.45;100.00;62759.84;5288210;28;20055;-76
2022/04/07 10:52:26;;;;;;;9.20;1.98;;;;;;;-145.45;100.00;62759.84;5303859;28;20485;-76
2022/04/07 10:55:12;;;;;;;5.80;1.88;;;;;;;-145.45;100.00;62759.84;5285720;28;20040;-76
2022/04/07 10:58:09;;;;;;;5.47;1.75;;;;;;;-145.45;100.00;62759.84;5302603;28;20021;-76
2022/04/07 11:00:41;;;;;;;7.55;1.67;;;;;;;-145.45;100.00;62759.84;5280967;28;20048;-76
2022/04/07 11:03:16;;;;;;;8.88;1.65;;;;;;;-145.45;100.00;62759.84;5303015;28;20094;-76
2022/04/07 11:05:52;;;;;;;5.65;1.30;;;;;;;-145.45;100.00;62759.84;5304120;28;20095;-76
2022/04/07 11:08:23;;;;;;;6.78;1.75;;;;;;;-145.45;100.00;62759.84;5300598;28;20127;-76
2022/04/07 11:10:55;;;;;;;6.75;1.98;;;;;;;-145.45;100.00;62759.84;5304046;28;20116;-76
2022/04/07 11:13:43;;;;;;;5.05;1.15;;;;;;;-145.45;100.00;62759.84;5302834;28;20037;-75
2022/04/07 11:16:24;;;;;;;8.30;1.65;;;;;;;-145.45;100.00;62759.84;5309422;28;20104;-76
2022/04/07 11:19:11;;;;;;;5.30;1.67;;;;;;;-145.45;100.00;62759.84;5284037;28;20024;-76
2022/04/07 11:21:48;;;;;;;4.28;1.55;;;;;;;-145.45;100.00;62759.84;5303272;28;20020;-76
2022/04/07 11:24:23;;;;;;;7.85;1.80;;;;;;;-145.45;100.00;62759.84;5302758;28;20020;-76
2022/04/07 11:26:55;;;;;;;5.97;1.52;;;;;;;-145.45;100.00;62759.84;5319778;28;20103;-76
2022/04/07 11:29:34;;;;;;;9.38;1.60;;;;;;;-145.45;100.00;62759.84;5298214;28;20498;-76
2022/04/07 11:32:09;;;;;;;6.68;1.80;;;;;;;-145.45;100.00;62759.84;5302168;28;20029;-76
2022/04/07 11:34:42;;;;;;;11.27;2.42;;;;;;;-145.45;100.00;62759.84;5303347;28;20067;-76